createdAt,value
2017-08-24T00:02:05.598Z,61.10
2017-08-24T00:04:33.092Z,61.30
2017-08-24T00:07:01.670Z,61.10
2017-08-24T00:09:29.434Z,61.20
2017-08-24T00:11:57.569Z,61.30
2017-08-24T00:14:25.039Z,62.50
2017-08-24T00:16:52.879Z,62.10
2017-08-24T00:19:20.739Z,62.60
2017-08-24T00:21:48.810Z,62.50
2017-08-24T00:24:16.742Z,62.50
2017-08-24T00:26:44.299Z,62.80
2017-08-24T00:29:11.755Z,62.90
2017-08-24T00:31:39.518Z,63.00
2017-08-24T00:34:07.027Z,63.80
2017-08-24T00:36:35.842Z,63.00
2017-08-24T00:39:04.686Z,62.20
2017-08-24T00:41:32.525Z,61.90
2017-08-24T00:43:59.977Z,61.70
2017-08-24T00:46:27.413Z,60.90
2017-08-24T00:48:55.170Z,60.90
2017-08-24T00:51:23.105Z,61.00
2017-08-24T00:53:51.027Z,61.30
2017-08-24T00:56:19.225Z,61.00
2017-08-24T00:58:47.038Z,61.30
2017-08-24T01:01:14.492Z,61.70
2017-08-24T01:03:42.677Z,62.10
2017-08-24T01:06:10.921Z,63.00
2017-08-24T01:08:38.882Z,62.80
2017-08-24T01:11:07.225Z,63.50
2017-08-24T01:13:34.673Z,63.50
2017-08-24T01:16:02.125Z,63.80
2017-08-24T01:18:30.998Z,64.10
2017-08-24T01:20:58.911Z,64.00
2017-08-24T01:23:26.909Z,64.20
2017-08-24T01:25:54.865Z,64.40
2017-08-24T01:28:22.493Z,64.80
2017-08-24T01:30:50.552Z,65.10
2017-08-24T01:33:18.097Z,65.50
2017-08-24T01:35:46.057Z,66.50
2017-08-24T01:38:14.065Z,67.30
2017-08-24T01:40:42.063Z,68.00
2017-08-24T01:43:10.509Z,68.80
2017-08-24T01:45:38.030Z,69.50
2017-08-24T01:48:05.479Z,70.10
2017-08-24T01:50:33.080Z,70.80
2017-08-24T01:53:01.321Z,71.30
2017-08-24T01:55:28.768Z,71.30
2017-08-24T01:57:56.797Z,71.40
2017-08-24T02:00:24.352Z,71.50
2017-08-24T02:02:51.828Z,71.70
2017-08-24T02:05:20.051Z,71.70
2017-08-24T02:07:47.919Z,71.70
2017-08-24T02:10:15.886Z,71.90
2017-08-24T02:12:43.331Z,72.10
2017-08-24T02:15:10.811Z,72.10
2017-08-24T02:17:38.639Z,72.20
2017-08-24T02:20:06.325Z,72.30
2017-08-24T02:22:34.386Z,72.50
2017-08-24T02:25:02.345Z,72.40
2017-08-24T02:27:30.084Z,72.40
2017-08-24T02:29:58.205Z,72.40
2017-08-24T02:32:25.995Z,72.40
2017-08-24T02:34:53.632Z,72.30
2017-08-24T02:37:21.654Z,72.30
2017-08-24T02:39:49.125Z,72.40
2017-08-24T02:42:16.719Z,72.30
2017-08-24T02:44:44.165Z,72.50
2017-08-24T02:47:12.350Z,72.60
2017-08-24T02:49:39.796Z,72.60
2017-08-24T02:52:07.246Z,72.50
2017-08-24T02:54:34.726Z,72.50
2017-08-24T02:57:04.900Z,72.40
2017-08-24T02:59:32.674Z,72.50
2017-08-24T03:02:00.882Z,72.50
2017-08-24T03:04:28.371Z,72.50
2017-08-24T03:06:56.224Z,72.50
2017-08-24T03:09:24.248Z,72.30
2017-08-24T03:11:51.705Z,72.20
2017-08-24T03:14:19.165Z,71.90
2017-08-24T03:16:46.660Z,72.60
2017-08-24T03:19:14.629Z,72.10
2017-08-24T03:21:43.305Z,71.90
2017-08-24T03:24:11.355Z,72.00
2017-08-24T03:26:39.326Z,72.10
2017-08-24T03:29:08.252Z,72.10
2017-08-24T03:31:35.716Z,72.10
2017-08-24T03:34:03.177Z,71.90
2017-08-24T03:36:30.653Z,71.90
2017-08-24T03:38:58.448Z,71.80
2017-08-24T03:41:25.970Z,71.70
2017-08-24T03:43:53.401Z,71.60
2017-08-24T03:46:21.030Z,71.60
2017-08-24T03:48:48.501Z,71.50
2017-08-24T03:51:16.176Z,71.40
2017-08-24T03:53:43.618Z,71.60
2017-08-24T03:56:11.115Z,71.60
2017-08-24T03:58:39.104Z,71.70
2017-08-24T04:01:06.581Z,71.80
2017-08-24T04:03:34.024Z,71.90
2017-08-24T04:06:01.749Z,71.80
2017-08-24T04:08:29.614Z,71.80
2017-08-24T04:10:57.829Z,71.90
2017-08-24T04:13:25.425Z,71.90
2017-08-24T04:15:53.520Z,72.00
2017-08-24T04:18:22.879Z,71.90
2017-08-24T04:20:50.349Z,72.00
2017-08-24T04:23:18.143Z,71.90
2017-08-24T04:25:46.036Z,71.80
2017-08-24T04:28:13.505Z,71.60
2017-08-24T04:30:40.975Z,71.60
2017-08-24T04:33:08.431Z,71.30
2017-08-24T04:35:36.684Z,71.70
2017-08-24T04:38:04.533Z,71.70
2017-08-24T04:40:32.027Z,71.70
2017-08-24T04:42:59.472Z,71.80
2017-08-24T04:45:27.367Z,71.60
2017-08-24T04:47:54.804Z,71.50
2017-08-24T04:50:22.339Z,71.20
2017-08-24T04:52:50.937Z,71.10
2017-08-24T04:55:18.660Z,71.10
2017-08-24T04:57:46.388Z,71.00
2017-08-24T05:00:13.866Z,70.90
2017-08-24T05:02:41.322Z,70.80
2017-08-24T05:05:09.224Z,70.60
2017-08-24T05:07:38.013Z,70.60
2017-08-24T05:10:05.906Z,70.60
2017-08-24T05:12:33.858Z,70.50
2017-08-24T05:15:01.745Z,70.50
2017-08-24T05:17:29.600Z,70.50
2017-08-24T05:19:57.045Z,70.80
2017-08-24T05:22:25.953Z,70.40
2017-08-24T05:24:54.901Z,70.40
2017-08-24T05:27:22.377Z,70.40
2017-08-24T05:29:49.833Z,70.60
2017-08-24T05:32:17.340Z,70.40
2017-08-24T05:34:44.836Z,70.40
2017-08-24T05:37:12.287Z,70.60
2017-08-24T05:39:39.774Z,70.70
2017-08-24T05:42:07.807Z,70.70
2017-08-24T05:44:35.261Z,70.70
2017-08-24T05:47:02.746Z,70.70
2017-08-24T05:49:30.234Z,70.40
2017-08-24T05:51:57.679Z,70.20
2017-08-24T05:54:25.160Z,70.50
2017-08-24T05:56:53.103Z,70.50
2017-08-24T05:59:20.532Z,70.50
2017-08-24T06:01:48.046Z,70.30
2017-08-24T06:04:16.120Z,70.10
2017-08-24T06:06:43.936Z,70.30
2017-08-24T06:09:11.713Z,70.00
2017-08-24T06:11:39.636Z,70.30
2017-08-24T06:14:07.081Z,70.20
2017-08-24T06:16:34.930Z,70.30
2017-08-24T06:19:02.722Z,70.10
2017-08-24T06:21:30.165Z,70.00
2017-08-24T06:23:58.181Z,69.90
2017-08-24T06:26:26.030Z,70.00
2017-08-24T06:28:53.482Z,70.20
2017-08-24T06:31:22.631Z,70.00
2017-08-24T06:33:50.127Z,70.00
2017-08-24T06:36:17.909Z,69.90
2017-08-24T06:38:45.833Z,69.80
2017-08-24T06:41:14.467Z,69.80
2017-08-24T06:43:41.935Z,69.80
2017-08-24T06:46:09.770Z,69.60
2017-08-24T06:48:37.398Z,69.80
2017-08-24T06:51:05.417Z,70.00
2017-08-24T06:53:32.909Z,69.90
2017-08-24T06:56:00.778Z,70.50
2017-08-24T06:58:28.622Z,69.90
2017-08-24T07:00:56.551Z,69.80
2017-08-24T07:03:24.617Z,69.70
2017-08-24T07:05:52.060Z,69.50
2017-08-24T07:08:20.105Z,69.50
2017-08-24T07:10:47.621Z,69.60
2017-08-24T07:13:15.070Z,69.40
2017-08-24T07:15:42.540Z,69.10
2017-08-24T07:18:11.308Z,69.40
2017-08-24T07:20:38.773Z,69.40
2017-08-24T07:23:06.510Z,69.90
2017-08-24T07:25:34.756Z,69.60
2017-08-24T07:28:02.958Z,69.80
2017-08-24T07:30:30.514Z,69.50
2017-08-24T07:32:57.993Z,69.80
2017-08-24T07:35:25.829Z,70.10
2017-08-24T07:37:53.311Z,69.50
2017-08-24T07:40:20.930Z,69.20
2017-08-24T07:42:48.782Z,69.60
2017-08-24T07:45:16.245Z,69.60
2017-08-24T07:47:44.481Z,70.00
2017-08-24T07:50:11.946Z,69.90
2017-08-24T07:52:39.449Z,69.30
2017-08-24T07:55:07.361Z,69.20
2017-08-24T07:57:35.362Z,69.30
2017-08-24T08:00:02.844Z,69.70
2017-08-24T08:02:30.379Z,70.10
2017-08-24T08:04:57.958Z,69.80
2017-08-24T08:07:26.055Z,70.20
2017-08-24T08:09:53.993Z,69.90
2017-08-24T08:12:21.437Z,69.80
2017-08-24T08:14:49.501Z,69.10
2017-08-24T08:17:17.731Z,69.50
2017-08-24T08:19:45.211Z,69.60
2017-08-24T08:22:13.068Z,69.00
2017-08-24T08:24:40.998Z,68.60
2017-08-24T08:27:08.863Z,68.60
2017-08-24T08:29:37.337Z,68.60
2017-08-24T08:32:04.801Z,68.50
2017-08-24T08:34:32.270Z,68.40
2017-08-24T08:36:59.796Z,68.30
2017-08-24T08:39:27.254Z,68.40
2017-08-24T08:41:55.238Z,69.00
2017-08-24T08:44:22.882Z,68.30
2017-08-24T08:46:50.665Z,68.10
2017-08-24T08:49:18.267Z,68.30
2017-08-24T08:51:45.732Z,68.20
2017-08-24T08:54:13.299Z,68.40
2017-08-24T08:56:41.203Z,68.60
2017-08-24T08:59:08.862Z,67.00
2017-08-24T09:01:36.329Z,68.10
2017-08-24T09:04:03.805Z,67.60
2017-08-24T09:06:31.787Z,67.70
2017-08-24T09:08:59.930Z,66.60
2017-08-24T09:11:27.379Z,66.70
2017-08-24T09:13:55.135Z,65.60
2017-08-24T09:16:22.649Z,66.10
2017-08-24T09:18:50.945Z,65.60
2017-08-24T09:21:18.402Z,65.70
2017-08-24T09:23:46.324Z,66.20
2017-08-24T09:26:14.722Z,65.30
2017-08-24T09:28:43.521Z,66.00
2017-08-24T09:31:11.323Z,65.90
2017-08-24T09:33:38.807Z,66.90
2017-08-24T09:36:06.310Z,66.70
2017-08-24T09:38:34.536Z,64.60
2017-08-24T09:41:02.272Z,64.60
2017-08-24T09:43:29.733Z,64.20
2017-08-24T09:45:57.178Z,64.40
2017-08-24T09:48:24.840Z,64.10
2017-08-24T09:50:52.277Z,64.70
2017-08-24T09:53:19.761Z,64.00
2017-08-24T09:55:47.206Z,64.00
2017-08-24T09:58:15.245Z,63.70
2017-08-24T10:00:42.693Z,63.30
2017-08-24T10:03:10.814Z,61.40
2017-08-24T10:05:38.261Z,62.20
2017-08-24T10:08:06.326Z,62.00
2017-08-24T10:10:34.267Z,63.30
2017-08-24T10:13:02.530Z,60.60
2017-08-24T10:15:30.682Z,60.60
2017-08-24T10:17:58.530Z,60.40
2017-08-24T10:20:26.893Z,61.40
2017-08-24T10:22:54.663Z,60.60
2017-08-24T10:25:23.102Z,61.30
2017-08-24T10:27:51.054Z,61.30
2017-08-24T10:30:18.729Z,61.00
2017-08-24T10:32:46.120Z,62.80
2017-08-24T10:35:13.645Z,62.20
2017-08-24T10:37:42.765Z,62.80
2017-08-24T10:40:10.355Z,63.50
2017-08-24T10:42:37.837Z,63.80
2017-08-24T10:45:05.340Z,63.20
2017-08-24T10:47:32.829Z,63.20
2017-08-24T10:50:00.271Z,63.40
2017-08-24T10:52:28.263Z,63.50
2017-08-24T10:54:55.832Z,62.50
2017-08-24T10:57:23.761Z,61.90
2017-08-24T10:59:51.226Z,62.40
2017-08-24T11:02:18.672Z,62.50
2017-08-24T11:04:46.785Z,62.30
2017-08-24T11:07:14.867Z,62.10
2017-08-24T11:09:42.891Z,61.90
2017-08-24T11:12:10.376Z,62.70
2017-08-24T11:14:38.020Z,62.70
2017-08-24T11:17:05.461Z,62.20
2017-08-24T11:19:33.359Z,62.90
2017-08-24T11:22:01.148Z,61.40
2017-08-24T11:24:29.455Z,61.00
2017-08-24T11:26:56.965Z,59.30
2017-08-24T11:29:24.777Z,59.60
2017-08-24T11:31:52.357Z,59.20
2017-08-24T11:34:19.838Z,59.20
2017-08-24T11:36:47.292Z,59.20
2017-08-24T11:39:14.768Z,59.30
2017-08-24T11:41:42.297Z,59.50
2017-08-24T11:44:09.850Z,59.30
2017-08-24T11:46:37.344Z,58.90
2017-08-24T11:49:05.399Z,59.20
2017-08-24T11:51:33.294Z,59.20
2017-08-24T11:54:00.755Z,59.60
2017-08-24T11:56:28.744Z,59.20
2017-08-24T11:58:56.710Z,59.30
2017-08-24T12:01:24.469Z,59.80
2017-08-24T12:03:51.905Z,59.60
2017-08-24T12:06:20.155Z,58.90
2017-08-24T12:08:48.098Z,58.90
2017-08-24T12:11:15.850Z,58.60
2017-08-24T12:13:43.293Z,58.00
2017-08-24T12:16:11.197Z,58.10
2017-08-24T12:18:39.022Z,57.80
2017-08-24T12:21:06.477Z,57.80
2017-08-24T12:23:34.282Z,57.00
2017-08-24T12:26:02.098Z,56.90
2017-08-24T12:28:29.981Z,57.90
2017-08-24T12:30:57.434Z,56.60
2017-08-24T12:33:24.917Z,56.10
2017-08-24T12:35:52.387Z,56.10
2017-08-24T12:38:19.849Z,55.80
2017-08-24T12:40:47.294Z,55.70
2017-08-24T12:43:16.038Z,55.10
2017-08-24T12:45:44.130Z,54.50
2017-08-24T12:48:12.371Z,54.50
2017-08-24T12:50:40.536Z,54.40
2017-08-24T12:53:08.010Z,53.40
2017-08-24T12:55:35.484Z,54.70
2017-08-24T12:58:03.325Z,53.10
2017-08-24T13:00:31.618Z,52.70
2017-08-24T13:02:59.572Z,52.50
2017-08-24T13:05:27.098Z,52.30
2017-08-24T13:07:54.963Z,52.90
2017-08-24T13:10:22.749Z,52.90
2017-08-24T13:12:50.207Z,52.90
2017-08-24T13:15:17.695Z,53.50
2017-08-24T13:17:45.588Z,54.40
2017-08-24T13:20:13.050Z,53.10
2017-08-24T13:22:40.805Z,53.30
2017-08-24T13:25:08.716Z,53.70
2017-08-24T13:27:36.203Z,52.40
2017-08-24T13:30:04.710Z,51.90
2017-08-24T13:32:32.154Z,51.90
2017-08-24T13:34:59.893Z,50.70
2017-08-24T13:37:27.754Z,51.50
2017-08-24T13:39:55.996Z,49.80
2017-08-24T13:42:23.450Z,49.70
2017-08-24T13:44:51.594Z,50.10
2017-08-24T13:47:19.060Z,50.30
2017-08-24T13:49:47.221Z,49.30
2017-08-24T13:52:15.109Z,48.20
2017-08-24T13:54:42.576Z,47.90
2017-08-24T13:57:10.954Z,48.50
2017-08-24T13:59:38.405Z,48.80
2017-08-24T14:02:05.896Z,48.70
2017-08-24T14:04:33.357Z,48.90
2017-08-24T14:07:01.335Z,48.80
2017-08-24T14:09:29.482Z,47.60
2017-08-24T14:11:58.016Z,48.20
2017-08-24T14:14:25.549Z,48.60
2017-08-24T14:16:53.011Z,48.50
2017-08-24T14:19:20.981Z,47.90
2017-08-24T14:21:49.157Z,48.90
2017-08-24T14:24:16.786Z,49.20
2017-08-24T14:26:44.244Z,49.30
2017-08-24T14:29:12.287Z,49.20
2017-08-24T14:31:40.313Z,48.90
2017-08-24T14:34:08.053Z,49.30
2017-08-24T14:36:35.506Z,48.40
2017-08-24T14:39:02.950Z,49.10
2017-08-24T14:41:30.432Z,48.80
2017-08-24T14:43:59.082Z,48.80
2017-08-24T14:46:26.561Z,48.80
2017-08-24T14:48:54.029Z,49.40
2017-08-24T14:51:21.905Z,48.50
2017-08-24T14:53:49.389Z,49.40
2017-08-24T14:56:16.840Z,49.00
2017-08-24T14:58:44.764Z,49.40
2017-08-24T15:01:12.217Z,48.90
2017-08-24T15:03:40.128Z,49.20
2017-08-24T15:06:07.567Z,48.30
2017-08-24T15:08:35.534Z,48.60
2017-08-24T15:11:03.518Z,48.10
2017-08-24T15:13:32.948Z,48.90
2017-08-24T15:16:00.429Z,48.90
2017-08-24T15:18:28.361Z,48.70
2017-08-24T15:20:56.118Z,49.00
2017-08-24T15:23:24.568Z,48.30
2017-08-24T15:25:52.233Z,48.50
2017-08-24T15:28:19.689Z,48.00
2017-08-24T15:30:49.772Z,48.80
2017-08-24T15:33:17.551Z,48.70
2017-08-24T15:35:45.603Z,49.40
2017-08-24T15:38:13.617Z,49.50
2017-08-24T15:40:41.072Z,49.40
2017-08-24T15:43:08.533Z,48.90
2017-08-24T15:45:36.322Z,49.00
2017-08-24T15:48:04.143Z,48.20
2017-08-24T15:50:31.847Z,49.70
2017-08-24T15:52:59.813Z,49.40
2017-08-24T15:55:27.305Z,49.50
2017-08-24T15:57:55.205Z,49.60
2017-08-24T16:00:22.671Z,49.70
2017-08-24T16:02:51.328Z,49.40
2017-08-24T16:05:18.797Z,49.40
2017-08-24T16:07:46.827Z,49.20
2017-08-24T16:10:15.473Z,49.30
2017-08-24T16:12:42.935Z,49.20
2017-08-24T16:15:10.404Z,48.70
2017-08-24T16:17:38.977Z,49.40
2017-08-24T16:20:06.783Z,49.40
2017-08-24T16:22:34.778Z,49.70
2017-08-24T16:25:02.262Z,50.80
2017-08-24T16:27:31.056Z,50.50
2017-08-24T16:29:59.883Z,49.80
2017-08-24T16:32:27.334Z,49.80
2017-08-24T16:34:54.893Z,50.50
2017-08-24T16:37:22.756Z,50.60
2017-08-24T16:39:50.253Z,50.00
2017-08-24T16:42:17.800Z,49.60
2017-08-24T16:44:45.369Z,49.70
2017-08-24T16:47:12.891Z,49.40
2017-08-24T16:49:40.634Z,49.30
2017-08-24T16:52:08.472Z,49.80
2017-08-24T16:54:35.938Z,49.70
2017-08-24T16:57:03.904Z,50.00
2017-08-24T16:59:31.448Z,49.80
2017-08-24T17:01:59.268Z,50.00
2017-08-24T17:04:28.355Z,50.00
2017-08-24T17:06:56.877Z,49.80
2017-08-24T17:09:25.432Z,50.40
2017-08-24T17:11:53.138Z,50.20
2017-08-24T17:14:20.612Z,50.20
2017-08-24T17:16:49.073Z,50.20
2017-08-24T17:19:16.818Z,51.10
2017-08-24T17:21:44.893Z,50.60
2017-08-24T17:24:13.099Z,50.50
2017-08-24T17:26:40.554Z,50.80
2017-08-24T17:29:08.059Z,50.90
2017-08-24T17:31:36.061Z,51.20
2017-08-24T17:34:04.705Z,50.90
2017-08-24T17:36:32.154Z,51.10
2017-08-24T17:38:59.618Z,51.40
2017-08-24T17:41:27.085Z,51.70
2017-08-24T17:43:55.011Z,51.70
2017-08-24T17:46:22.782Z,51.70
2017-08-24T17:48:50.630Z,51.70
2017-08-24T17:51:18.883Z,52.10
2017-08-24T17:53:46.719Z,52.10
2017-08-24T17:56:14.674Z,52.00
2017-08-24T17:58:42.437Z,52.20
2017-08-24T18:01:12.112Z,52.30
2017-08-24T18:03:39.852Z,52.30
2017-08-24T18:06:07.349Z,52.50
2017-08-24T18:08:35.181Z,52.60
2017-08-24T18:11:03.215Z,52.80
2017-08-24T18:13:30.966Z,52.70
2017-08-24T18:15:58.462Z,53.00
2017-08-24T18:18:27.278Z,53.20
2017-08-24T18:20:54.985Z,53.10
2017-08-24T18:23:23.184Z,53.70
2017-08-24T18:25:51.338Z,53.20
2017-08-24T18:28:18.846Z,53.40
2017-08-24T18:30:47.328Z,53.30
2017-08-24T18:33:15.598Z,53.40
2017-08-24T18:35:44.071Z,54.40
2017-08-24T18:38:12.048Z,53.60
2017-08-24T18:40:41.065Z,53.80
2017-08-24T18:43:09.466Z,53.80
2017-08-24T18:45:37.781Z,53.90
2017-08-24T18:48:06.133Z,53.90
2017-08-24T18:50:34.312Z,54.20
2017-08-24T18:53:04.100Z,54.30
2017-08-24T18:55:32.098Z,54.60
2017-08-24T18:58:00.557Z,54.80
2017-08-24T19:00:29.879Z,55.10
2017-08-24T19:02:59.554Z,55.30
2017-08-24T19:05:27.307Z,55.80
2017-08-24T19:07:56.514Z,55.50
2017-08-24T19:10:25.106Z,55.50
2017-08-24T19:12:53.526Z,56.60
2017-08-24T19:15:21.306Z,56.60
2017-08-24T19:17:50.506Z,56.50
2017-08-24T19:20:18.624Z,56.90
2017-08-24T19:22:49.159Z,57.00
2017-08-24T19:25:18.131Z,56.50
2017-08-24T19:27:46.538Z,56.50
2017-08-24T19:30:14.430Z,56.70
2017-08-24T19:32:43.302Z,57.00
2017-08-24T19:35:11.717Z,57.60
2017-08-24T19:37:40.557Z,56.90
2017-08-24T19:40:08.381Z,56.80
2017-08-24T19:42:36.222Z,57.40
2017-08-24T19:45:05.439Z,56.80
2017-08-24T19:47:33.712Z,56.80
2017-08-24T19:50:01.995Z,57.00
2017-08-24T19:52:30.669Z,57.00
2017-08-24T19:54:58.546Z,57.20
2017-08-24T19:57:28.088Z,56.60
2017-08-24T19:59:57.051Z,56.60
2017-08-24T20:02:27.085Z,56.50
2017-08-24T20:04:55.424Z,56.70
2017-08-24T20:07:24.017Z,55.90
2017-08-24T20:09:52.694Z,55.90
2017-08-24T20:12:21.255Z,55.90
2017-08-24T20:14:48.930Z,56.10
2017-08-24T20:17:19.760Z,55.80
2017-08-24T20:19:49.176Z,55.60
2017-08-24T20:22:18.269Z,55.70
2017-08-24T20:24:47.343Z,55.60
2017-08-24T20:27:15.590Z,56.00
2017-08-24T20:29:43.427Z,55.90
2017-08-24T20:32:11.848Z,56.00
2017-08-24T20:34:40.030Z,55.90
2017-08-24T20:37:08.877Z,55.90
2017-08-24T20:39:37.473Z,56.50
2017-08-24T20:42:05.326Z,55.70
2017-08-24T20:44:33.821Z,55.70
2017-08-24T20:47:01.529Z,55.60
2017-08-24T20:49:29.174Z,55.50
2017-08-24T20:51:56.883Z,55.50
2017-08-24T20:54:25.556Z,55.40
2017-08-24T20:56:54.008Z,55.60
2017-08-24T20:59:22.796Z,55.40
2017-08-24T21:01:50.812Z,56.20
2017-08-24T21:04:19.204Z,56.00
2017-08-24T21:06:47.474Z,55.90
2017-08-24T21:09:14.915Z,56.20
2017-08-24T21:11:42.754Z,56.10
2017-08-24T21:14:10.193Z,55.90
2017-08-24T21:16:37.778Z,56.30
2017-08-24T21:19:05.762Z,56.30
2017-08-24T21:21:34.568Z,56.60
2017-08-24T21:24:02.421Z,56.60
2017-08-24T21:26:29.855Z,56.70
2017-08-24T21:28:57.827Z,57.10
2017-08-24T21:31:25.264Z,57.30
2017-08-24T21:33:53.222Z,57.00
2017-08-24T21:36:20.708Z,57.00
2017-08-24T21:38:48.404Z,57.70
2017-08-24T21:41:15.871Z,57.60
2017-08-24T21:43:43.300Z,58.10
2017-08-24T21:46:11.021Z,58.80
2017-08-24T21:48:38.873Z,59.30
2017-08-24T21:51:06.315Z,58.90
2017-08-24T21:53:34.505Z,59.20
2017-08-24T21:56:01.966Z,59.40
2017-08-24T21:58:30.490Z,59.10
2017-08-24T22:00:58.429Z,59.20
2017-08-24T22:03:25.878Z,59.50
2017-08-24T22:05:53.385Z,59.50
2017-08-24T22:08:21.370Z,59.90
2017-08-24T22:10:49.475Z,60.10
2017-08-24T22:13:16.913Z,60.10
2017-08-24T22:15:44.412Z,60.30
2017-08-24T22:18:12.293Z,60.60
2017-08-24T22:20:40.150Z,60.70
2017-08-24T22:23:08.996Z,60.70
2017-08-24T22:25:37.035Z,60.70
2017-08-24T22:28:04.905Z,60.90
2017-08-24T22:30:32.354Z,61.70
2017-08-24T22:33:01.103Z,61.20
2017-08-24T22:35:28.762Z,61.10
2017-08-24T22:37:56.238Z,61.10
2017-08-24T22:40:23.681Z,61.30
2017-08-24T22:42:51.576Z,61.20
2017-08-24T22:45:19.729Z,61.30
2017-08-24T22:47:47.933Z,61.50
2017-08-24T22:50:15.926Z,61.70
2017-08-24T22:52:43.393Z,61.50
2017-08-24T22:55:16.876Z,61.50
2017-08-24T22:57:50.244Z,61.60
2017-08-24T23:00:23.497Z,61.50
2017-08-24T23:05:56.514Z,61.60
2017-08-24T23:08:24.468Z,61.60
2017-08-24T23:10:52.307Z,62.00
2017-08-24T23:13:19.749Z,62.00
2017-08-24T23:15:47.433Z,62.00
2017-08-24T23:18:15.282Z,62.20
2017-08-24T23:20:44.794Z,62.40
2017-08-24T23:23:12.582Z,62.30
2017-08-24T23:25:40.098Z,62.70
2017-08-24T23:28:07.844Z,62.80
2017-08-24T23:30:35.710Z,62.60
2017-08-24T23:33:03.181Z,62.50
2017-08-24T23:35:30.622Z,62.60
2017-08-24T23:37:58.101Z,62.70
2017-08-24T23:40:25.551Z,62.60
2017-08-24T23:42:53.030Z,62.60
2017-08-24T23:45:20.974Z,62.60
2017-08-24T23:47:48.435Z,63.20
2017-08-24T23:50:15.889Z,62.80
2017-08-24T23:52:43.325Z,63.20
2017-08-24T23:55:11.446Z,63.20
2017-08-24T23:57:39.321Z,63.20
